sensor_id;sensor_type;location;lat;lon;timestamp;P1;durP1;ratioP1;P2;durP2;ratioP2
46080;SDS011;31821;51.880;-0.518;2022-08-19T00:00:45;1.58;;;1.38;;
46080;SDS011;31821;51.880;-0.518;2022-08-19T00:03:11;1.98;;;1.77;;
46080;SDS011;31821;51.880;-0.518;2022-08-19T00:05:36;1.90;;;1.70;;
46080;SDS011;31821;51.880;-0.518;2022-08-19T00:08:02;1.65;;;1.52;;
46080;SDS011;31821;51.880;-0.518;2022-08-19T00:10:28;2.28;;;1.63;;
46080;SDS011;31821;51.880;-0.518;2022-08-19T00:12:54;1.67;;;1.58;;
46080;SDS011;31821;51.880;-0.518;2022-08-19T00:15:20;1.95;;;1.67;;
46080;SDS011;31821;51.880;-0.518;2022-08-19T00:17:46;1.50;;;1.40;;
46080;SDS011;31821;51.880;-0.518;2022-08-19T00:20:13;1.52;;;1.30;;
46080;SDS011;31821;51.880;-0.518;2022-08-19T00:22:42;1.35;;;1.25;;
46080;SDS011;31821;51.880;-0.518;2022-08-19T00:25:09;1.42;;;1.33;;
46080;SDS011;31821;51.880;-0.518;2022-08-19T00:27:35;1.40;;;1.30;;
46080;SDS011;31821;51.880;-0.518;2022-08-19T00:30:01;1.50;;;1.35;;
46080;SDS011;31821;51.880;-0.518;2022-08-19T00:32:29;1.70;;;1.60;;
46080;SDS011;31821;51.880;-0.518;2022-08-19T00:34:54;1.70;;;1.50;;
46080;SDS011;31821;51.880;-0.518;2022-08-19T00:37:21;1.73;;;1.60;;
46080;SDS011;31821;51.880;-0.518;2022-08-19T00:39:49;1.95;;;1.70;;
46080;SDS011;31821;51.880;-0.518;2022-08-19T00:42:16;1.30;;;1.20;;
46080;SDS011;31821;51.880;-0.518;2022-08-19T00:44:42;1.40;;;1.30;;
46080;SDS011;31821;51.880;-0.518;2022-08-19T00:47:08;1.70;;;1.55;;
46080;SDS011;31821;51.880;-0.518;2022-08-19T00:49:35;1.30;;;1.20;;
46080;SDS011;31821;51.880;-0.518;2022-08-19T00:52:04;1.67;;;1.55;;
46080;SDS011;31821;51.880;-0.518;2022-08-19T00:54:38;2.05;;;1.20;;
46080;SDS011;31821;51.880;-0.518;2022-08-19T00:57:06;1.60;;;1.50;;
46080;SDS011;31821;51.880;-0.518;2022-08-19T00:59:34;1.50;;;1.33;;
46080;SDS011;31821;51.880;-0.518;2022-08-19T01:02:04;1.70;;;1.60;;
46080;SDS011;31821;51.880;-0.518;2022-08-19T01:04:29;1.63;;;1.40;;
46080;SDS011;31821;51.880;-0.518;2022-08-19T01:06:55;1.20;;;1.10;;
46080;SDS011;31821;51.880;-0.518;2022-08-19T01:09:22;1.33;;;1.23;;
46080;SDS011;31821;51.880;-0.518;2022-08-19T01:11:47;1.52;;;1.40;;
46080;SDS011;31821;51.880;-0.518;2022-08-19T01:14:13;1.30;;;1.20;;
46080;SDS011;31821;51.880;-0.518;2022-08-19T01:16:40;2.03;;;1.70;;
46080;SDS011;31821;51.880;-0.518;2022-08-19T01:19:11;1.50;;;1.40;;
46080;SDS011;31821;51.880;-0.518;2022-08-19T01:21:45;1.70;;;1.60;;
46080;SDS011;31821;51.880;-0.518;2022-08-19T01:24:17;1.33;;;1.23;;
46080;SDS011;31821;51.880;-0.518;2022-08-19T01:26:43;1.48;;;1.30;;
46080;SDS011;31821;51.880;-0.518;2022-08-19T01:29:10;1.70;;;1.30;;
46080;SDS011;31821;51.880;-0.518;2022-08-19T01:31:36;1.17;;;1.08;;
46080;SDS011;31821;51.880;-0.518;2022-08-19T01:34:04;1.25;;;1.15;;
46080;SDS011;31821;51.880;-0.518;2022-08-19T01:36:31;1.63;;;1.48;;
46080;SDS011;31821;51.880;-0.518;2022-08-19T01:39:04;1.70;;;1.50;;
46080;SDS011;31821;51.880;-0.518;2022-08-19T01:41:32;1.20;;;1.10;;
46080;SDS011;31821;51.880;-0.518;2022-08-19T01:43:59;1.45;;;1.35;;
46080;SDS011;31821;51.880;-0.518;2022-08-19T01:46:26;1.40;;;1.30;;
46080;SDS011;31821;51.880;-0.518;2022-08-19T01:48:51;1.20;;;1.10;;
46080;SDS011;31821;51.880;-0.518;2022-08-19T01:51:17;1.23;;;1.13;;
46080;SDS011;31821;51.880;-0.518;2022-08-19T01:53:45;1.50;;;1.40;;
46080;SDS011;31821;51.880;-0.518;2022-08-19T01:56:13;1.45;;;1.35;;
46080;SDS011;31821;51.880;-0.518;2022-08-19T01:58:41;1.40;;;1.30;;
46080;SDS011;31821;51.880;-0.518;2022-08-19T02:01:12;1.50;;;1.40;;
46080;SDS011;31821;51.880;-0.518;2022-08-19T02:03:38;1.48;;;1.38;;
46080;SDS011;31821;51.880;-0.518;2022-08-19T02:06:04;1.30;;;1.20;;
46080;SDS011;31821;51.880;-0.518;2022-08-19T02:08:31;1.15;;;1.05;;
46080;SDS011;31821;51.880;-0.518;2022-08-19T02:10:58;1.45;;;1.35;;
46080;SDS011;31821;51.880;-0.518;2022-08-19T02:13:26;1.50;;;1.27;;
46080;SDS011;31821;51.880;-0.518;2022-08-19T02:15:52;1.40;;;1.30;;
46080;SDS011;31821;51.880;-0.518;2022-08-19T02:18:18;1.63;;;1.40;;
46080;SDS011;31821;51.880;-0.518;2022-08-19T02:20:44;1.20;;;1.10;;
46080;SDS011;31821;51.880;-0.518;2022-08-19T02:23:10;1.23;;;1.13;;
46080;SDS011;31821;51.880;-0.518;2022-08-19T02:25:37;1.13;;;1.02;;
46080;SDS011;31821;51.880;-0.518;2022-08-19T02:28:04;1.27;;;1.17;;
46080;SDS011;31821;51.880;-0.518;2022-08-19T02:30:30;1.83;;;1.27;;
46080;SDS011;31821;51.880;-0.518;2022-08-19T02:32:57;1.23;;;1.13;;
46080;SDS011;31821;51.880;-0.518;2022-08-19T02:35:23;1.30;;;1.20;;
46080;SDS011;31821;51.880;-0.518;2022-08-19T02:37:49;0.90;;;0.90;;
46080;SDS011;31821;51.880;-0.518;2022-08-19T02:40:33;1.48;;;1.30;;
46080;SDS011;31821;51.880;-0.518;2022-08-19T02:43:04;1.35;;;1.25;;
46080;SDS011;31821;51.880;-0.518;2022-08-19T02:48:01;0.98;;;0.95;;
46080;SDS011;31821;51.880;-0.518;2022-08-19T02:50:27;1.00;;;0.90;;
46080;SDS011;31821;51.880;-0.518;2022-08-19T02:52:53;1.02;;;0.93;;
46080;SDS011;31821;51.880;-0.518;2022-08-19T02:55:18;1.25;;;1.10;;
46080;SDS011;31821;51.880;-0.518;2022-08-19T02:57:46;1.33;;;1.13;;
46080;SDS011;31821;51.880;-0.518;2022-08-19T03:00:12;1.20;;;1.10;;
46080;SDS011;31821;51.880;-0.518;2022-08-19T03:02:38;1.70;;;1.27;;
46080;SDS011;31821;51.880;-0.518;2022-08-19T03:05:04;1.10;;;1.00;;
46080;SDS011;31821;51.880;-0.518;2022-08-19T03:07:31;0.88;;;0.88;;
46080;SDS011;31821;51.880;-0.518;2022-08-19T03:09:57;1.20;;;1.10;;
46080;SDS011;31821;51.880;-0.518;2022-08-19T03:12:23;1.40;;;1.10;;
46080;SDS011;31821;51.880;-0.518;2022-08-19T03:14:48;1.10;;;1.00;;
46080;SDS011;31821;51.880;-0.518;2022-08-19T03:17:14;1.30;;;1.08;;
46080;SDS011;31821;51.880;-0.518;2022-08-19T03:19:40;1.02;;;0.93;;
46080;SDS011;31821;51.880;-0.518;2022-08-19T03:22:05;1.20;;;1.10;;
46080;SDS011;31821;51.880;-0.518;2022-08-19T03:24:31;1.25;;;1.15;;
46080;SDS011;31821;51.880;-0.518;2022-08-19T03:26:57;1.00;;;0.90;;
46080;SDS011;31821;51.880;-0.518;2022-08-19T03:29:24;1.10;;;1.00;;
46080;SDS011;31821;51.880;-0.518;2022-08-19T03:31:54;0.90;;;0.90;;
46080;SDS011;31821;51.880;-0.518;2022-08-19T03:34:27;1.20;;;1.10;;
46080;SDS011;31821;51.880;-0.518;2022-08-19T03:36:54;0.98;;;0.90;;
46080;SDS011;31821;51.880;-0.518;2022-08-19T03:39:22;1.10;;;1.00;;
46080;SDS011;31821;51.880;-0.518;2022-08-19T03:41:51;1.13;;;1.02;;
46080;SDS011;31821;51.880;-0.518;2022-08-19T03:44:20;1.27;;;1.00;;
46080;SDS011;31821;51.880;-0.518;2022-08-19T03:46:51;0.90;;;0.90;;
46080;SDS011;31821;51.880;-0.518;2022-08-19T03:49:20;1.25;;;1.15;;
46080;SDS011;31821;51.880;-0.518;2022-08-19T03:51:48;1.20;;;1.10;;
46080;SDS011;31821;51.880;-0.518;2022-08-19T03:54:16;1.20;;;1.10;;
46080;SDS011;31821;51.880;-0.518;2022-08-19T03:56:45;1.10;;;1.00;;
46080;SDS011;31821;51.880;-0.518;2022-08-19T03:59:13;1.63;;;1.20;;
46080;SDS011;31821;51.880;-0.518;2022-08-19T04:01:42;0.88;;;0.88;;
46080;SDS011;31821;51.880;-0.518;2022-08-19T04:04:08;1.20;;;1.10;;
46080;SDS011;31821;51.880;-0.518;2022-08-19T04:06:35;0.98;;;0.90;;
46080;SDS011;31821;51.880;-0.518;2022-08-19T04:09:04;0.93;;;0.90;;
46080;SDS011;31821;51.880;-0.518;2022-08-19T04:11:39;1.10;;;1.00;;
46080;SDS011;31821;51.880;-0.518;2022-08-19T04:14:07;1.13;;;1.02;;
46080;SDS011;31821;51.880;-0.518;2022-08-19T04:16:34;1.08;;;1.00;;
46080;SDS011;31821;51.880;-0.518;2022-08-19T04:19:01;1.02;;;0.93;;
46080;SDS011;31821;51.880;-0.518;2022-08-19T04:21:28;0.98;;;0.95;;
46080;SDS011;31821;51.880;-0.518;2022-08-19T04:23:54;1.15;;;1.00;;
46080;SDS011;31821;51.880;-0.518;2022-08-19T04:26:22;0.95;;;0.90;;
46080;SDS011;31821;51.880;-0.518;2022-08-19T04:28:50;1.00;;;0.90;;
46080;SDS011;31821;51.880;-0.518;2022-08-19T04:31:20;1.08;;;0.98;;
46080;SDS011;31821;51.880;-0.518;2022-08-19T04:33:47;0.82;;;0.82;;
46080;SDS011;31821;51.880;-0.518;2022-08-19T04:36:24;1.10;;;1.00;;
46080;SDS011;31821;51.880;-0.518;2022-08-19T04:41:46;0.90;;;0.90;;
46080;SDS011;31821;51.880;-0.518;2022-08-19T04:44:31;0.90;;;0.90;;
46080;SDS011;31821;51.880;-0.518;2022-08-19T04:46:58;0.80;;;0.80;;
46080;SDS011;31821;51.880;-0.518;2022-08-19T04:49:23;1.10;;;1.00;;
46080;SDS011;31821;51.880;-0.518;2022-08-19T04:51:50;0.93;;;0.88;;
46080;SDS011;31821;51.880;-0.518;2022-08-19T04:54:19;0.80;;;0.80;;
46080;SDS011;31821;51.880;-0.518;2022-08-19T04:56:51;1.10;;;1.00;;
46080;SDS011;31821;51.880;-0.518;2022-08-19T04:59:18;0.82;;;0.82;;
46080;SDS011;31821;51.880;-0.518;2022-08-19T05:01:45;0.80;;;0.80;;
46080;SDS011;31821;51.880;-0.518;2022-08-19T05:04:16;1.02;;;0.93;;
46080;SDS011;31821;51.880;-0.518;2022-08-19T05:06:44;1.00;;;0.90;;
46080;SDS011;31821;51.880;-0.518;2022-08-19T05:09:12;1.10;;;1.00;;
46080;SDS011;31821;51.880;-0.518;2022-08-19T05:11:38;0.95;;;0.93;;
46080;SDS011;31821;51.880;-0.518;2022-08-19T05:14:07;0.90;;;0.90;;
46080;SDS011;31821;51.880;-0.518;2022-08-19T05:16:33;0.85;;;0.80;;
46080;SDS011;31821;51.880;-0.518;2022-08-19T05:18:59;1.02;;;0.93;;
46080;SDS011;31821;51.880;-0.518;2022-08-19T05:21:44;1.00;;;0.90;;
46080;SDS011;31821;51.880;-0.518;2022-08-19T05:24:29;0.80;;;0.80;;
46080;SDS011;31821;51.880;-0.518;2022-08-19T05:26:55;1.00;;;0.90;;
46080;SDS011;31821;51.880;-0.518;2022-08-19T05:29:25;1.00;;;0.90;;
46080;SDS011;31821;51.880;-0.518;2022-08-19T05:31:53;0.80;;;0.80;;
46080;SDS011;31821;51.880;-0.518;2022-08-19T05:34:20;0.80;;;0.80;;
46080;SDS011;31821;51.880;-0.518;2022-08-19T05:36:47;0.90;;;0.90;;
46080;SDS011;31821;51.880;-0.518;2022-08-19T05:39:16;0.70;;;0.70;;
46080;SDS011;31821;51.880;-0.518;2022-08-19T05:41:51;1.00;;;0.90;;
46080;SDS011;31821;51.880;-0.518;2022-08-19T05:44:20;0.80;;;0.80;;
46080;SDS011;31821;51.880;-0.518;2022-08-19T05:46:46;0.80;;;0.80;;
46080;SDS011;31821;51.880;-0.518;2022-08-19T05:49:13;0.85;;;0.80;;
46080;SDS011;31821;51.880;-0.518;2022-08-19T05:51:41;0.70;;;0.70;;
46080;SDS011;31821;51.880;-0.518;2022-08-19T05:54:08;0.85;;;0.80;;
46080;SDS011;31821;51.880;-0.518;2022-08-19T05:56:36;0.85;;;0.85;;
46080;SDS011;31821;51.880;-0.518;2022-08-19T05:59:03;0.80;;;0.80;;
46080;SDS011;31821;51.880;-0.518;2022-08-19T06:01:35;0.90;;;0.90;;
46080;SDS011;31821;51.880;-0.518;2022-08-19T06:04:02;1.10;;;1.00;;
46080;SDS011;31821;51.880;-0.518;2022-08-19T06:06:28;0.70;;;0.70;;
46080;SDS011;31821;51.880;-0.518;2022-08-19T06:08:54;0.93;;;0.93;;
46080;SDS011;31821;51.880;-0.518;2022-08-19T06:11:21;1.23;;;1.13;;
46080;SDS011;31821;51.880;-0.518;2022-08-19T06:13:57;1.17;;;1.08;;
46080;SDS011;31821;51.880;-0.518;2022-08-19T06:16:26;0.77;;;0.77;;
46080;SDS011;31821;51.880;-0.518;2022-08-19T06:18:53;1.20;;;1.10;;
46080;SDS011;31821;51.880;-0.518;2022-08-19T06:21:23;1.10;;;1.00;;
46080;SDS011;31821;51.880;-0.518;2022-08-19T06:26:18;0.80;;;0.80;;
46080;SDS011;31821;51.880;-0.518;2022-08-19T06:28:45;0.70;;;0.70;;
46080;SDS011;31821;51.880;-0.518;2022-08-19T06:31:15;1.13;;;1.00;;
46080;SDS011;31821;51.880;-0.518;2022-08-19T06:33:42;0.70;;;0.70;;
46080;SDS011;31821;51.880;-0.518;2022-08-19T06:36:15;0.80;;;0.80;;
46080;SDS011;31821;51.880;-0.518;2022-08-19T06:39:11;1.45;;;1.00;;
46080;SDS011;31821;51.880;-0.518;2022-08-19T06:42:00;0.80;;;0.80;;
46080;SDS011;31821;51.880;-0.518;2022-08-19T06:44:29;1.20;;;1.10;;
46080;SDS011;31821;51.880;-0.518;2022-08-19T06:47:00;1.20;;;1.10;;
46080;SDS011;31821;51.880;-0.518;2022-08-19T06:49:27;1.05;;;0.90;;
46080;SDS011;31821;51.880;-0.518;2022-08-19T06:51:56;0.88;;;0.88;;
46080;SDS011;31821;51.880;-0.518;2022-08-19T06:54:22;0.95;;;0.85;;
46080;SDS011;31821;51.880;-0.518;2022-08-19T06:56:48;1.10;;;1.00;;
46080;SDS011;31821;51.880;-0.518;2022-08-19T06:59:15;1.13;;;1.00;;
46080;SDS011;31821;51.880;-0.518;2022-08-19T07:01:44;1.10;;;1.00;;
46080;SDS011;31821;51.880;-0.518;2022-08-19T07:04:13;1.10;;;1.00;;
46080;SDS011;31821;51.880;-0.518;2022-08-19T07:06:40;1.20;;;1.10;;
46080;SDS011;31821;51.880;-0.518;2022-08-19T07:09:07;0.90;;;0.88;;
46080;SDS011;31821;51.880;-0.518;2022-08-19T07:11:34;1.05;;;0.90;;
46080;SDS011;31821;51.880;-0.518;2022-08-19T07:14:00;1.20;;;1.10;;
46080;SDS011;31821;51.880;-0.518;2022-08-19T07:16:26;1.33;;;1.10;;
46080;SDS011;31821;51.880;-0.518;2022-08-19T07:18:52;1.02;;;0.93;;
46080;SDS011;31821;51.880;-0.518;2022-08-19T07:21:20;1.02;;;0.90;;
46080;SDS011;31821;51.880;-0.518;2022-08-19T07:23:51;1.13;;;1.02;;
46080;SDS011;31821;51.880;-0.518;2022-08-19T07:28:48;1.00;;;0.90;;
46080;SDS011;31821;51.880;-0.518;2022-08-19T07:31:15;1.02;;;0.93;;
46080;SDS011;31821;51.880;-0.518;2022-08-19T07:33:43;1.20;;;1.00;;
46080;SDS011;31821;51.880;-0.518;2022-08-19T07:36:10;0.80;;;0.80;;
46080;SDS011;31821;51.880;-0.518;2022-08-19T07:38:38;0.95;;;0.80;;
46080;SDS011;31821;51.880;-0.518;2022-08-19T07:41:09;1.00;;;0.90;;
46080;SDS011;31821;51.880;-0.518;2022-08-19T07:43:38;1.00;;;0.90;;
46080;SDS011;31821;51.880;-0.518;2022-08-19T07:46:05;0.82;;;0.82;;
46080;SDS011;31821;51.880;-0.518;2022-08-19T07:48:31;1.02;;;1.00;;
46080;SDS011;31821;51.880;-0.518;2022-08-19T07:50:58;1.10;;;1.00;;
46080;SDS011;31821;51.880;-0.518;2022-08-19T07:53:29;1.30;;;1.10;;
46080;SDS011;31821;51.880;-0.518;2022-08-19T07:55:56;0.75;;;0.75;;
46080;SDS011;31821;51.880;-0.518;2022-08-19T07:58:29;1.08;;;0.98;;
46080;SDS011;31821;51.880;-0.518;2022-08-19T08:00:57;1.13;;;0.90;;
46080;SDS011;31821;51.880;-0.518;2022-08-19T08:03:23;1.33;;;0.80;;
46080;SDS011;31821;51.880;-0.518;2022-08-19T08:06:07;1.05;;;0.95;;
46080;SDS011;31821;51.880;-0.518;2022-08-19T08:08:52;1.23;;;0.80;;
46080;SDS011;31821;51.880;-0.518;2022-08-19T08:11:36;0.75;;;0.73;;
46080;SDS011;31821;51.880;-0.518;2022-08-19T08:14:19;0.70;;;0.70;;
46080;SDS011;31821;51.880;-0.518;2022-08-19T08:16:48;0.93;;;0.80;;
46080;SDS011;31821;51.880;-0.518;2022-08-19T08:19:14;1.17;;;1.00;;
46080;SDS011;31821;51.880;-0.518;2022-08-19T08:21:41;0.85;;;0.82;;
46080;SDS011;31821;51.880;-0.518;2022-08-19T08:24:06;1.15;;;0.90;;
46080;SDS011;31821;51.880;-0.518;2022-08-19T08:26:32;0.73;;;0.73;;
46080;SDS011;31821;51.880;-0.518;2022-08-19T08:28:58;1.00;;;0.90;;
46080;SDS011;31821;51.880;-0.518;2022-08-19T08:31:24;0.70;;;0.70;;
46080;SDS011;31821;51.880;-0.518;2022-08-19T08:33:49;1.10;;;0.90;;
46080;SDS011;31821;51.880;-0.518;2022-08-19T08:36:15;0.90;;;0.80;;
46080;SDS011;31821;51.880;-0.518;2022-08-19T08:38:41;0.80;;;0.80;;
46080;SDS011;31821;51.880;-0.518;2022-08-19T08:44:10;1.00;;;0.80;;
46080;SDS011;31821;51.880;-0.518;2022-08-19T08:46:41;0.80;;;0.80;;
46080;SDS011;31821;51.880;-0.518;2022-08-19T08:51:53;1.23;;;0.90;;
46080;SDS011;31821;51.880;-0.518;2022-08-19T08:54:43;1.33;;;0.90;;
46080;SDS011;31821;51.880;-0.518;2022-08-19T08:57:15;4.07;;;1.17;;
46080;SDS011;31821;51.880;-0.518;2022-08-19T08:59:45;2.38;;;1.02;;
46080;SDS011;31821;51.880;-0.518;2022-08-19T09:02:17;2.70;;;1.20;;
46080;SDS011;31821;51.880;-0.518;2022-08-19T09:04:43;2.67;;;1.25;;
46080;SDS011;31821;51.880;-0.518;2022-08-19T09:09:38;1.30;;;1.02;;
46080;SDS011;31821;51.880;-0.518;2022-08-19T09:12:10;1.50;;;0.90;;
46080;SDS011;31821;51.880;-0.518;2022-08-19T09:14:55;2.55;;;1.23;;
46080;SDS011;31821;51.880;-0.518;2022-08-19T09:17:27;1.33;;;0.98;;
46080;SDS011;31821;51.880;-0.518;2022-08-19T09:22:39;2.90;;;1.00;;
46080;SDS011;31821;51.880;-0.518;2022-08-19T09:25:09;3.15;;;1.13;;
46080;SDS011;31821;51.880;-0.518;2022-08-19T09:27:37;3.03;;;1.30;;
46080;SDS011;31821;51.880;-0.518;2022-08-19T09:30:04;3.00;;;1.38;;
46080;SDS011;31821;51.880;-0.518;2022-08-19T09:32:32;3.38;;;1.20;;
46080;SDS011;31821;51.880;-0.518;2022-08-19T09:34:58;1.33;;;0.98;;
46080;SDS011;31821;51.880;-0.518;2022-08-19T09:37:25;1.45;;;0.88;;
46080;SDS011;31821;51.880;-0.518;2022-08-19T09:39:51;2.35;;;1.10;;
46080;SDS011;31821;51.880;-0.518;2022-08-19T09:42:17;2.85;;;1.10;;
46080;SDS011;31821;51.880;-0.518;2022-08-19T09:44:44;2.25;;;1.10;;
46080;SDS011;31821;51.880;-0.518;2022-08-19T09:47:11;3.72;;;1.35;;
46080;SDS011;31821;51.880;-0.518;2022-08-19T09:49:38;1.77;;;1.25;;
46080;SDS011;31821;51.880;-0.518;2022-08-19T09:52:04;2.63;;;1.30;;
46080;SDS011;31821;51.880;-0.518;2022-08-19T09:54:32;1.30;;;0.90;;
46080;SDS011;31821;51.880;-0.518;2022-08-19T09:56:58;3.75;;;1.10;;
46080;SDS011;31821;51.880;-0.518;2022-08-19T09:59:25;2.50;;;1.30;;
46080;SDS011;31821;51.880;-0.518;2022-08-19T10:01:51;4.20;;;1.50;;
46080;SDS011;31821;51.880;-0.518;2022-08-19T10:04:18;4.53;;;1.40;;
46080;SDS011;31821;51.880;-0.518;2022-08-19T10:06:44;5.70;;;1.40;;
46080;SDS011;31821;51.880;-0.518;2022-08-19T10:09:13;3.75;;;1.40;;
46080;SDS011;31821;51.880;-0.518;2022-08-19T10:11:40;3.55;;;1.30;;
46080;SDS011;31821;51.880;-0.518;2022-08-19T10:14:07;3.30;;;1.45;;
46080;SDS011;31821;51.880;-0.518;2022-08-19T10:16:32;3.13;;;1.35;;
46080;SDS011;31821;51.880;-0.518;2022-08-19T10:19:00;2.50;;;1.23;;
46080;SDS011;31821;51.880;-0.518;2022-08-19T10:21:28;3.00;;;1.13;;
46080;SDS011;31821;51.880;-0.518;2022-08-19T10:23:56;2.22;;;1.10;;
46080;SDS011;31821;51.880;-0.518;2022-08-19T10:26:24;3.30;;;1.40;;
46080;SDS011;31821;51.880;-0.518;2022-08-19T10:28:52;3.92;;;1.55;;
46080;SDS011;31821;51.880;-0.518;2022-08-19T10:31:25;4.20;;;1.40;;
46080;SDS011;31821;51.880;-0.518;2022-08-19T10:33:52;2.95;;;1.10;;
46080;SDS011;31821;51.880;-0.518;2022-08-19T10:36:27;4.13;;;1.60;;
46080;SDS011;31821;51.880;-0.518;2022-08-19T10:38:57;2.88;;;1.30;;
46080;SDS011;31821;51.880;-0.518;2022-08-19T10:41:28;2.50;;;1.10;;
46080;SDS011;31821;51.880;-0.518;2022-08-19T10:43:58;4.63;;;1.15;;
46080;SDS011;31821;51.880;-0.518;2022-08-19T10:46:27;2.55;;;1.20;;
46080;SDS011;31821;51.880;-0.518;2022-08-19T10:48:57;4.30;;;1.30;;
46080;SDS011;31821;51.880;-0.518;2022-08-19T10:51:23;3.65;;;1.13;;
46080;SDS011;31821;51.880;-0.518;2022-08-19T10:54:08;3.38;;;1.33;;
46080;SDS011;31821;51.880;-0.518;2022-08-19T10:56:34;2.17;;;1.13;;
46080;SDS011;31821;51.880;-0.518;2022-08-19T10:59:20;2.75;;;1.20;;
46080;SDS011;31821;51.880;-0.518;2022-08-19T11:01:48;3.30;;;1.27;;
46080;SDS011;31821;51.880;-0.518;2022-08-19T11:04:15;3.58;;;1.40;;
46080;SDS011;31821;51.880;-0.518;2022-08-19T11:06:46;2.63;;;1.10;;
46080;SDS011;31821;51.880;-0.518;2022-08-19T11:09:16;3.70;;;1.42;;
46080;SDS011;31821;51.880;-0.518;2022-08-19T11:11:44;3.08;;;1.15;;
46080;SDS011;31821;51.880;-0.518;2022-08-19T11:14:11;4.32;;;1.20;;
46080;SDS011;31821;51.880;-0.518;2022-08-19T11:16:38;2.67;;;1.38;;
46080;SDS011;31821;51.880;-0.518;2022-08-19T11:19:05;3.00;;;1.20;;
46080;SDS011;31821;51.880;-0.518;2022-08-19T11:21:37;2.53;;;1.23;;
46080;SDS011;31821;51.880;-0.518;2022-08-19T11:24:06;2.45;;;1.20;;
46080;SDS011;31821;51.880;-0.518;2022-08-19T11:26:38;3.47;;;1.30;;
46080;SDS011;31821;51.880;-0.518;2022-08-19T11:29:05;2.92;;;1.23;;
46080;SDS011;31821;51.880;-0.518;2022-08-19T11:34:04;2.67;;;1.27;;
46080;SDS011;31821;51.880;-0.518;2022-08-19T11:36:32;2.03;;;1.20;;
46080;SDS011;31821;51.880;-0.518;2022-08-19T11:38:58;4.07;;;1.20;;
46080;SDS011;31821;51.880;-0.518;2022-08-19T11:41:25;2.97;;;1.33;;
46080;SDS011;31821;51.880;-0.518;2022-08-19T11:43:51;3.90;;;1.30;;
46080;SDS011;31821;51.880;-0.518;2022-08-19T11:46:21;3.50;;;1.20;;
46080;SDS011;31821;51.880;-0.518;2022-08-19T11:48:47;2.90;;;1.10;;
46080;SDS011;31821;51.880;-0.518;2022-08-19T11:51:15;2.83;;;1.25;;
46080;SDS011;31821;51.880;-0.518;2022-08-19T11:53:46;3.45;;;1.10;;
46080;SDS011;31821;51.880;-0.518;2022-08-19T11:56:12;2.40;;;1.05;;
46080;SDS011;31821;51.880;-0.518;2022-08-19T11:58:38;3.38;;;1.55;;
46080;SDS011;31821;51.880;-0.518;2022-08-19T12:01:05;4.38;;;1.40;;
46080;SDS011;31821;51.880;-0.518;2022-08-19T12:03:32;2.75;;;1.17;;
46080;SDS011;31821;51.880;-0.518;2022-08-19T12:06:02;3.22;;;1.45;;
46080;SDS011;31821;51.880;-0.518;2022-08-19T12:08:32;2.90;;;1.23;;
46080;SDS011;31821;51.880;-0.518;2022-08-19T12:10:57;3.55;;;1.40;;
46080;SDS011;31821;51.880;-0.518;2022-08-19T12:13:26;3.13;;;1.30;;
46080;SDS011;31821;51.880;-0.518;2022-08-19T12:15:52;3.33;;;1.20;;
46080;SDS011;31821;51.880;-0.518;2022-08-19T12:18:19;2.03;;;1.00;;
46080;SDS011;31821;51.880;-0.518;2022-08-19T12:20:44;3.58;;;1.00;;
46080;SDS011;31821;51.880;-0.518;2022-08-19T12:23:11;3.40;;;1.20;;
46080;SDS011;31821;51.880;-0.518;2022-08-19T12:25:37;3.38;;;1.10;;
46080;SDS011;31821;51.880;-0.518;2022-08-19T12:28:20;3.10;;;1.10;;
46080;SDS011;31821;51.880;-0.518;2022-08-19T12:30:47;1.95;;;1.02;;
46080;SDS011;31821;51.880;-0.518;2022-08-19T12:33:15;4.72;;;1.20;;
46080;SDS011;31821;51.880;-0.518;2022-08-19T12:35:41;1.90;;;1.02;;
46080;SDS011;31821;51.880;-0.518;2022-08-19T12:38:09;3.95;;;1.20;;
46080;SDS011;31821;51.880;-0.518;2022-08-19T12:40:35;3.83;;;1.30;;
46080;SDS011;31821;51.880;-0.518;2022-08-19T12:43:01;1.92;;;1.00;;
46080;SDS011;31821;51.880;-0.518;2022-08-19T12:45:26;1.95;;;1.00;;
46080;SDS011;31821;51.880;-0.518;2022-08-19T12:47:52;2.75;;;1.00;;
46080;SDS011;31821;51.880;-0.518;2022-08-19T12:50:18;2.92;;;1.33;;
46080;SDS011;31821;51.880;-0.518;2022-08-19T12:52:46;1.63;;;0.90;;
46080;SDS011;31821;51.880;-0.518;2022-08-19T12:55:13;3.10;;;1.10;;
46080;SDS011;31821;51.880;-0.518;2022-08-19T12:57:40;2.20;;;1.00;;
46080;SDS011;31821;51.880;-0.518;2022-08-19T13:00:10;3.25;;;1.17;;
46080;SDS011;31821;51.880;-0.518;2022-08-19T13:02:42;2.50;;;1.10;;
46080;SDS011;31821;51.880;-0.518;2022-08-19T13:05:10;2.63;;;1.20;;
46080;SDS011;31821;51.880;-0.518;2022-08-19T13:07:39;2.58;;;1.10;;
46080;SDS011;31821;51.880;-0.518;2022-08-19T13:10:06;3.03;;;1.10;;
46080;SDS011;31821;51.880;-0.518;2022-08-19T13:12:33;3.00;;;1.33;;
46080;SDS011;31821;51.880;-0.518;2022-08-19T13:14:59;2.40;;;1.05;;
46080;SDS011;31821;51.880;-0.518;2022-08-19T13:17:24;3.38;;;1.05;;
46080;SDS011;31821;51.880;-0.518;2022-08-19T13:19:50;2.72;;;1.30;;
46080;SDS011;31821;51.880;-0.518;2022-08-19T13:22:16;2.88;;;1.30;;
46080;SDS011;31821;51.880;-0.518;2022-08-19T13:24:42;2.70;;;1.00;;
46080;SDS011;31821;51.880;-0.518;2022-08-19T13:27:08;3.08;;;1.10;;
46080;SDS011;31821;51.880;-0.518;2022-08-19T13:29:33;2.42;;;1.17;;
46080;SDS011;31821;51.880;-0.518;2022-08-19T13:32:18;4.05;;;1.55;;
46080;SDS011;31821;51.880;-0.518;2022-08-19T13:35:02;3.70;;;1.23;;
46080;SDS011;31821;51.880;-0.518;2022-08-19T13:37:28;2.83;;;1.00;;
46080;SDS011;31821;51.880;-0.518;2022-08-19T13:40:11;3.22;;;1.17;;
46080;SDS011;31821;51.880;-0.518;2022-08-19T13:42:43;2.28;;;0.90;;
46080;SDS011;31821;51.880;-0.518;2022-08-19T13:45:11;4.95;;;1.50;;
46080;SDS011;31821;51.880;-0.518;2022-08-19T13:47:37;1.70;;;0.90;;
46080;SDS011;31821;51.880;-0.518;2022-08-19T13:52:37;3.25;;;1.35;;
46080;SDS011;31821;51.880;-0.518;2022-08-19T13:55:04;2.80;;;1.20;;
46080;SDS011;31821;51.880;-0.518;2022-08-19T13:57:30;2.67;;;1.10;;
46080;SDS011;31821;51.880;-0.518;2022-08-19T13:59:55;1.90;;;1.00;;
46080;SDS011;31821;51.880;-0.518;2022-08-19T14:02:22;2.42;;;1.08;;
46080;SDS011;31821;51.880;-0.518;2022-08-19T14:04:48;1.80;;;1.10;;
46080;SDS011;31821;51.880;-0.518;2022-08-19T14:07:14;3.45;;;1.08;;
46080;SDS011;31821;51.880;-0.518;2022-08-19T14:09:40;2.40;;;0.90;;
46080;SDS011;31821;51.880;-0.518;2022-08-19T14:12:05;3.75;;;1.05;;
46080;SDS011;31821;51.880;-0.518;2022-08-19T14:14:31;3.22;;;1.30;;
46080;SDS011;31821;51.880;-0.518;2022-08-19T14:16:57;2.13;;;1.00;;
46080;SDS011;31821;51.880;-0.518;2022-08-19T14:19:23;3.13;;;1.30;;
46080;SDS011;31821;51.880;-0.518;2022-08-19T14:21:48;2.55;;;0.93;;
46080;SDS011;31821;51.880;-0.518;2022-08-19T14:24:14;3.78;;;1.25;;
46080;SDS011;31821;51.880;-0.518;2022-08-19T14:26:39;2.22;;;1.10;;
46080;SDS011;31821;51.880;-0.518;2022-08-19T14:29:05;2.88;;;1.20;;
46080;SDS011;31821;51.880;-0.518;2022-08-19T14:31:30;3.67;;;1.30;;
46080;SDS011;31821;51.880;-0.518;2022-08-19T14:33:56;1.52;;;1.10;;
46080;SDS011;31821;51.880;-0.518;2022-08-19T14:36:21;2.85;;;1.10;;
46080;SDS011;31821;51.880;-0.518;2022-08-19T14:38:47;4.78;;;1.38;;
46080;SDS011;31821;51.880;-0.518;2022-08-19T14:41:15;5.93;;;1.70;;
46080;SDS011;31821;51.880;-0.518;2022-08-19T14:43:44;2.78;;;1.30;;
46080;SDS011;31821;51.880;-0.518;2022-08-19T14:46:12;3.83;;;1.10;;
46080;SDS011;31821;51.880;-0.518;2022-08-19T14:48:40;2.30;;;1.00;;
46080;SDS011;31821;51.880;-0.518;2022-08-19T14:51:06;4.07;;;1.00;;
46080;SDS011;31821;51.880;-0.518;2022-08-19T14:53:32;3.60;;;1.20;;
46080;SDS011;31821;51.880;-0.518;2022-08-19T14:55:58;3.42;;;1.25;;
46080;SDS011;31821;51.880;-0.518;2022-08-19T14:58:25;2.30;;;1.00;;
46080;SDS011;31821;51.880;-0.518;2022-08-19T15:00:51;4.10;;;1.27;;
46080;SDS011;31821;51.880;-0.518;2022-08-19T15:03:20;3.97;;;1.15;;
46080;SDS011;31821;51.880;-0.518;2022-08-19T15:05:45;2.78;;;1.02;;